createdAt,value
2018-05-15T00:00:08.171Z,4.30
2018-05-15T00:02:35.993Z,3.97
2018-05-15T00:05:04.756Z,5.10
2018-05-15T00:07:32.096Z,5.60
2018-05-15T00:09:59.382Z,5.60
2018-05-15T00:12:26.739Z,4.80
2018-05-15T00:14:54.060Z,4.73
2018-05-15T00:17:21.403Z,6.90
2018-05-15T00:19:48.680Z,6.20
2018-05-15T00:22:15.981Z,6.70
2018-05-15T00:24:43.321Z,6.43
2018-05-15T00:27:10.708Z,8.73
2018-05-15T00:29:38.037Z,8.03
2018-05-15T00:32:05.503Z,10.13
2018-05-15T00:34:32.997Z,10.13
2018-05-15T00:37:00.418Z,10.10
2018-05-15T00:39:28.027Z,11.50
2018-05-15T00:41:55.493Z,12.13
2018-05-15T00:44:22.852Z,11.50
2018-05-15T00:46:50.125Z,13.93
2018-05-15T00:49:17.472Z,12.33
2018-05-15T00:51:44.774Z,13.00
2018-05-15T00:54:12.272Z,13.97
2018-05-15T00:56:39.777Z,14.70
2018-05-15T00:59:07.535Z,14.60
2018-05-15T01:01:36.242Z,13.77
2018-05-15T01:04:03.616Z,14.10
2018-05-15T01:06:31.026Z,11.67
2018-05-15T01:08:58.443Z,13.47
2018-05-15T01:11:25.828Z,13.00
2018-05-15T01:13:53.128Z,13.33
2018-05-15T01:16:20.408Z,13.90
2018-05-15T01:18:47.720Z,15.03
2018-05-15T01:21:14.992Z,13.73
2018-05-15T01:23:42.311Z,14.10
2018-05-15T01:26:09.746Z,14.20
2018-05-15T01:28:37.089Z,14.67
2018-05-15T01:31:04.706Z,15.43
2018-05-15T01:33:32.072Z,15.80
2018-05-15T01:35:59.385Z,12.50
2018-05-15T01:38:26.846Z,14.60
2018-05-15T01:40:54.217Z,13.30
2018-05-15T01:43:21.509Z,15.30
2018-05-15T01:45:49.517Z,13.70
2018-05-15T01:48:16.826Z,14.63
2018-05-15T01:50:44.125Z,15.60
2018-05-15T01:53:13.606Z,15.13
2018-05-15T01:55:40.981Z,15.83
2018-05-15T01:58:08.389Z,15.70
2018-05-15T02:00:35.825Z,13.07
2018-05-15T02:03:03.167Z,15.47
2018-05-15T02:05:30.489Z,15.83
2018-05-15T02:07:58.091Z,15.93
2018-05-15T02:10:25.507Z,16.47
2018-05-15T02:12:52.830Z,17.70
2018-05-15T02:15:20.140Z,17.20
2018-05-15T02:17:47.476Z,16.73
2018-05-15T02:20:14.862Z,16.97
2018-05-15T02:22:42.449Z,18.47
2018-05-15T02:25:09.790Z,16.47
2018-05-15T02:27:37.906Z,17.97
2018-05-15T02:30:06.571Z,18.47
2018-05-15T02:32:35.106Z,18.83
2018-05-15T02:35:02.391Z,17.70
2018-05-15T02:37:29.704Z,18.10
2018-05-15T02:39:57.025Z,16.80
2018-05-15T02:42:24.332Z,17.50
2018-05-15T02:44:51.678Z,17.80
2018-05-15T02:47:18.961Z,18.10
2018-05-15T02:49:46.274Z,18.40
2018-05-15T02:52:13.568Z,19.10
2018-05-15T02:54:41.130Z,19.37
2018-05-15T02:57:08.695Z,19.23
2018-05-15T02:59:36.572Z,19.87
2018-05-15T03:02:04.375Z,19.60
2018-05-15T03:04:31.903Z,19.90
2018-05-15T03:06:59.193Z,17.80
2018-05-15T03:09:26.550Z,19.80
2018-05-15T03:11:54.113Z,21.23
2018-05-15T03:14:21.417Z,21.40
2018-05-15T03:16:48.708Z,22.10
2018-05-15T03:19:16.003Z,20.70
2018-05-15T03:21:43.317Z,23.07
2018-05-15T03:24:10.659Z,23.00
2018-05-15T03:26:38.219Z,23.10
2018-05-15T03:29:05.675Z,28.03
2018-05-15T03:31:32.997Z,25.80
2018-05-15T03:34:00.543Z,27.40
2018-05-15T03:36:27.927Z,24.43
2018-05-15T03:38:55.437Z,24.30
2018-05-15T03:41:22.721Z,26.27
2018-05-15T03:43:50.074Z,25.70
2018-05-15T03:46:17.391Z,25.47
2018-05-15T03:48:44.810Z,26.40
2018-05-15T03:51:12.411Z,23.10
2018-05-15T03:53:40.065Z,21.87
2018-05-15T03:56:07.647Z,22.27
2018-05-15T03:58:35.129Z,24.23
2018-05-15T04:01:08.239Z,22.87
2018-05-15T04:03:42.725Z,21.60
2018-05-15T04:06:17.154Z,21.83
2018-05-15T04:08:44.582Z,22.00
2018-05-15T04:11:12.722Z,21.87
2018-05-15T04:13:40.249Z,21.20
2018-05-15T04:16:08.294Z,19.00
2018-05-15T04:18:35.760Z,21.57
2018-05-15T04:21:03.130Z,20.33
2018-05-15T04:23:30.910Z,17.13
2018-05-15T04:25:58.208Z,17.57
2018-05-15T04:28:26.861Z,17.17
2018-05-15T04:30:54.133Z,16.87
2018-05-15T04:33:21.470Z,14.83
2018-05-15T04:35:49.025Z,14.80
2018-05-15T04:38:16.322Z,15.23
2018-05-15T04:40:43.881Z,13.73
2018-05-15T04:43:11.349Z,12.13
2018-05-15T04:45:38.679Z,13.47
2018-05-15T04:48:06.416Z,13.13
2018-05-15T04:50:34.478Z,11.60
2018-05-15T04:53:01.910Z,11.53
2018-05-15T04:55:29.203Z,11.90
2018-05-15T04:57:56.578Z,9.30
2018-05-15T05:00:23.983Z,10.67
2018-05-15T05:02:51.265Z,10.50
2018-05-15T05:05:18.554Z,9.37
2018-05-15T05:07:45.937Z,9.33
2018-05-15T05:10:13.263Z,8.20
2018-05-15T05:12:40.622Z,9.50
2018-05-15T05:15:08.666Z,8.47
2018-05-15T05:17:36.207Z,8.80
2018-05-15T05:20:03.530Z,8.87
2018-05-15T05:22:31.834Z,8.73
2018-05-15T05:24:59.146Z,8.03
2018-05-15T05:27:28.041Z,8.33
2018-05-15T05:29:55.438Z,7.80
2018-05-15T05:32:22.751Z,9.37
2018-05-15T05:34:50.057Z,8.60
2018-05-15T05:37:17.337Z,7.50
2018-05-15T05:39:44.621Z,8.90
2018-05-15T05:42:11.972Z,7.73
2018-05-15T05:44:39.292Z,8.73
2018-05-15T05:47:06.616Z,8.87
2018-05-15T05:49:36.002Z,8.33
2018-05-15T05:52:03.347Z,9.60
2018-05-15T05:54:30.648Z,9.10
2018-05-15T06:00:00.645Z,8.47
2018-05-15T06:02:27.944Z,9.07
2018-05-15T06:04:56.435Z,9.03
2018-05-15T06:07:23.838Z,7.70
2018-05-15T06:09:51.161Z,8.27
2018-05-15T06:12:18.495Z,8.60
2018-05-15T06:14:45.844Z,8.43
2018-05-15T06:17:13.317Z,8.07
2018-05-15T06:19:40.751Z,7.97
2018-05-15T06:22:08.215Z,7.83
2018-05-15T06:27:12.858Z,7.93
2018-05-15T06:29:40.374Z,7.57
2018-05-15T06:32:07.780Z,7.07
2018-05-15T06:34:35.466Z,8.07
2018-05-15T06:37:02.862Z,10.33
2018-05-15T06:39:30.247Z,7.73
2018-05-15T06:41:57.799Z,8.60
2018-05-15T06:44:25.281Z,8.57
2018-05-15T06:46:52.717Z,7.53
2018-05-15T06:51:55.849Z,8.20
2018-05-15T06:54:23.233Z,8.90
2018-05-15T06:56:51.458Z,8.87
2018-05-15T06:59:19.215Z,7.73
2018-05-15T07:01:46.741Z,7.40
2018-05-15T07:04:14.068Z,8.70
2018-05-15T07:06:41.628Z,7.60
2018-05-15T07:09:22.694Z,7.40
2018-05-15T07:11:50.101Z,7.10
2018-05-15T07:14:17.494Z,7.80
2018-05-15T07:16:44.995Z,8.33
2018-05-15T07:19:12.685Z,9.80
2018-05-15T07:21:40.305Z,8.70
2018-05-15T07:24:07.951Z,7.97
2018-05-15T07:26:35.692Z,8.30
2018-05-15T07:29:03.320Z,7.57
2018-05-15T07:31:30.936Z,8.30
2018-05-15T07:44:40.666Z,8.53
2018-05-15T07:47:08.094Z,9.40
2018-05-15T07:49:35.966Z,9.30
2018-05-15T07:54:35.179Z,8.83
2018-05-15T07:57:02.723Z,10.10
2018-05-15T08:02:01.781Z,9.30
2018-05-15T08:09:32.375Z,8.83
2018-05-15T08:11:59.955Z,8.80
2018-05-15T08:14:28.188Z,9.50
2018-05-15T08:16:56.198Z,8.50
2018-05-15T08:19:23.767Z,9.67
2018-05-15T08:21:51.090Z,9.60
2018-05-15T08:24:18.789Z,8.27
2018-05-15T08:29:20.890Z,9.73
2018-05-15T08:31:48.348Z,8.10
2018-05-15T08:34:15.758Z,10.33
2018-05-15T08:36:43.471Z,9.80
2018-05-15T08:39:11.064Z,9.27
2018-05-15T08:46:47.573Z,10.23
2018-05-15T08:49:15.134Z,9.00
2018-05-15T08:51:42.983Z,9.87
2018-05-15T08:54:11.067Z,10.30
2018-05-15T08:56:38.567Z,10.23
2018-05-15T09:01:39.578Z,10.13
2018-05-15T09:06:52.026Z,11.00
2018-05-15T09:11:51.897Z,9.43
2018-05-15T09:14:19.984Z,9.30
2018-05-15T09:16:47.756Z,9.67
2018-05-15T09:19:15.666Z,10.17
2018-05-15T09:21:44.645Z,11.63
2018-05-15T09:24:12.171Z,10.17
2018-05-15T09:36:57.137Z,10.20
2018-05-15T09:39:24.599Z,11.13
2018-05-15T09:41:52.072Z,10.90
2018-05-15T09:44:19.462Z,11.47
2018-05-15T09:47:00.144Z,10.33
2018-05-15T09:49:27.578Z,12.23
2018-05-15T09:51:55.107Z,12.20
2018-05-15T09:54:23.219Z,11.23
2018-05-15T09:56:50.555Z,10.03
2018-05-15T09:59:22.042Z,11.57
2018-05-15T10:01:50.347Z,12.00
2018-05-15T10:04:17.655Z,10.87
2018-05-15T10:06:45.015Z,11.20
2018-05-15T10:09:12.512Z,11.40
2018-05-15T10:11:40.459Z,12.63
2018-05-15T10:19:42.836Z,13.37
2018-05-15T10:24:43.433Z,15.20
2018-05-15T10:29:42.983Z,14.00
2018-05-15T10:32:11.110Z,14.63
2018-05-15T10:34:38.907Z,21.00
2018-05-15T10:37:06.583Z,16.73
2018-05-15T10:39:34.879Z,16.70
2018-05-15T10:42:02.302Z,13.50
2018-05-15T10:44:33.305Z,13.30
2018-05-15T10:47:00.770Z,13.07
2018-05-15T10:49:28.732Z,12.57
2018-05-15T10:51:56.064Z,14.00
2018-05-15T10:54:23.554Z,15.10
2018-05-15T10:56:50.898Z,15.57
2018-05-15T10:59:18.235Z,17.13
2018-05-15T11:01:45.925Z,15.77
2018-05-15T11:04:13.442Z,16.47
2018-05-15T11:06:42.398Z,16.83
2018-05-15T11:09:09.871Z,19.17
2018-05-15T11:11:37.687Z,14.77
2018-05-15T11:14:05.992Z,14.30
2018-05-15T11:16:34.375Z,15.13
2018-05-15T11:19:07.695Z,16.70
2018-05-15T11:21:41.244Z,14.20
2018-05-15T11:24:23.696Z,14.03
2018-05-15T11:26:51.338Z,14.80
2018-05-15T11:29:19.013Z,17.23
2018-05-15T11:31:46.687Z,17.90
2018-05-15T11:34:14.083Z,16.73
2018-05-15T11:36:41.744Z,17.23
2018-05-15T11:39:10.098Z,16.70
2018-05-15T11:41:38.240Z,18.47
2018-05-15T11:46:39.907Z,17.37
2018-05-15T11:49:08.412Z,18.43
2018-05-15T11:51:36.533Z,16.93
2018-05-15T11:54:03.798Z,17.53
2018-05-15T11:56:31.619Z,18.47
2018-05-15T12:04:02.905Z,16.03
2018-05-15T12:06:30.508Z,18.10
2018-05-15T12:08:57.841Z,19.00
2018-05-15T12:11:25.385Z,18.50
2018-05-15T12:13:52.714Z,18.80
2018-05-15T12:16:20.115Z,14.97
2018-05-15T12:21:21.098Z,14.40
2018-05-15T12:31:25.757Z,14.00
2018-05-15T12:33:53.079Z,13.30
2018-05-15T12:36:20.926Z,13.23
2018-05-15T12:38:48.310Z,12.87
2018-05-15T12:41:15.695Z,13.13
2018-05-15T12:43:43.544Z,12.23
2018-05-15T12:46:11.019Z,12.70
2018-05-15T12:48:39.160Z,13.07
2018-05-15T12:51:08.361Z,14.93
2018-05-15T12:53:35.994Z,12.70
2018-05-15T12:56:03.826Z,9.93
2018-05-15T12:58:31.330Z,8.03
2018-05-15T13:00:59.141Z,7.50
2018-05-15T13:03:26.554Z,5.90
2018-05-15T13:05:54.048Z,9.60
2018-05-15T13:08:22.027Z,8.57
2018-05-15T13:13:24.411Z,8.13
2018-05-15T13:15:51.920Z,8.60
2018-05-15T13:18:19.277Z,11.47
2018-05-15T13:20:46.676Z,12.37
2018-05-15T13:25:45.790Z,11.63
2018-05-15T13:28:13.299Z,9.00
2018-05-15T13:30:40.918Z,8.57
2018-05-15T13:35:41.347Z,10.77
2018-05-15T13:38:09.698Z,10.20
2018-05-15T13:48:14.668Z,11.60
2018-05-15T13:50:43.256Z,10.10
2018-05-15T13:53:12.765Z,10.40
2018-05-15T13:58:17.102Z,8.83
2018-05-15T14:05:48.317Z,10.83
2018-05-15T14:08:16.438Z,10.80
2018-05-15T14:15:51.916Z,8.77
2018-05-15T14:18:19.956Z,9.00
2018-05-15T14:20:47.605Z,8.40
2018-05-15T14:23:15.509Z,9.07
2018-05-15T14:28:16.093Z,9.30
2018-05-15T14:30:44.918Z,8.80
2018-05-15T14:33:12.394Z,7.73
2018-05-15T14:35:40.268Z,8.10
2018-05-15T14:38:08.129Z,6.90
2018-05-15T14:40:36.411Z,7.17
2018-05-15T14:45:41.379Z,6.63
2018-05-15T14:48:08.859Z,6.47
2018-05-15T14:53:14.775Z,5.73
2018-05-15T14:55:43.346Z,6.13
2018-05-15T15:00:43.000Z,8.40
2018-05-15T15:03:12.712Z,32.73
2018-05-15T15:05:40.478Z,17.73
2018-05-15T15:08:09.835Z,7.20
2018-05-15T15:10:38.044Z,8.13
2018-05-15T15:13:06.091Z,7.30
2018-05-15T15:15:33.528Z,7.67
2018-05-15T15:18:01.154Z,7.23
2018-05-15T15:20:28.549Z,7.10
2018-05-15T15:22:59.558Z,6.57
2018-05-15T15:25:26.943Z,8.03
2018-05-15T15:33:00.869Z,5.43
2018-05-15T15:38:01.413Z,6.07
2018-05-15T15:40:29.704Z,6.40
2018-05-15T15:45:28.757Z,6.50
2018-05-15T15:47:56.258Z,6.00
2018-05-15T15:50:23.825Z,5.93
2018-05-15T15:52:51.424Z,6.17
2018-05-15T15:55:18.811Z,5.90
2018-05-15T16:00:19.966Z,6.27
2018-05-15T16:05:18.972Z,6.60
2018-05-15T16:07:46.444Z,7.17
2018-05-15T16:10:14.188Z,5.40
2018-05-15T16:12:41.979Z,6.60
2018-05-15T16:17:42.622Z,5.67
2018-05-15T16:20:10.907Z,5.93
2018-05-15T16:22:40.285Z,5.70
2018-05-15T16:25:07.822Z,5.80
2018-05-15T16:27:36.086Z,6.40
2018-05-15T16:30:03.413Z,7.13
2018-05-15T16:35:02.571Z,5.70
2018-05-15T16:37:29.882Z,5.13
2018-05-15T16:39:57.308Z,6.00
2018-05-15T16:42:24.710Z,5.57
2018-05-15T16:47:25.694Z,6.10
2018-05-15T16:49:52.949Z,5.27
2018-05-15T16:52:20.442Z,6.43
2018-05-15T16:54:47.945Z,4.90
2018-05-15T17:05:08.032Z,4.13
2018-05-15T17:10:21.603Z,4.87
2018-05-15T17:18:08.076Z,5.30
2018-05-15T17:20:35.872Z,4.67
2018-05-15T17:23:06.207Z,4.47
2018-05-15T17:25:35.195Z,5.20
2018-05-15T17:30:40.475Z,5.73
2018-05-15T17:35:41.096Z,8.80
2018-05-15T17:38:08.668Z,8.20
2018-05-15T17:48:41.199Z,3.80
2018-05-15T17:57:16.708Z,6.20
2018-05-15T17:59:44.744Z,7.33
2018-05-15T18:04:43.855Z,7.60
2018-05-15T18:07:11.444Z,9.17
2018-05-15T18:09:42.505Z,9.60
2018-05-15T18:14:41.873Z,8.17
2018-05-15T18:17:09.430Z,7.77
2018-05-15T18:19:36.994Z,6.20
2018-05-15T18:22:04.757Z,7.77
2018-05-15T18:24:32.158Z,5.70
2018-05-15T18:26:59.911Z,6.47
2018-05-15T18:29:27.206Z,7.27
2018-05-15T18:31:54.646Z,6.30
2018-05-15T18:34:21.954Z,5.80
2018-05-15T18:36:49.285Z,6.03
2018-05-15T18:39:18.303Z,7.00
2018-05-15T18:41:45.902Z,5.70
2018-05-15T18:44:13.420Z,5.43
2018-05-15T18:46:40.872Z,6.33
2018-05-15T18:49:08.631Z,6.27
2018-05-15T18:51:36.726Z,7.50
2018-05-15T18:54:04.357Z,9.73
2018-05-15T18:56:31.659Z,7.83
2018-05-15T18:58:59.028Z,9.13
2018-05-15T19:01:26.440Z,7.60
2018-05-15T19:03:53.886Z,7.47
2018-05-15T19:06:21.287Z,9.03
2018-05-15T19:08:48.997Z,8.70
2018-05-15T19:11:19.076Z,7.87
2018-05-15T19:13:46.653Z,7.27
2018-05-15T19:16:14.090Z,8.70
2018-05-15T19:18:41.931Z,7.80
2018-05-15T19:21:09.520Z,8.57
2018-05-15T19:23:37.668Z,6.70
2018-05-15T19:26:05.449Z,6.97
2018-05-15T19:28:32.802Z,8.13
2018-05-15T19:31:00.138Z,7.60
2018-05-15T19:33:33.223Z,8.23
2018-05-15T19:36:06.407Z,9.53
2018-05-15T19:38:33.913Z,9.07
2018-05-15T19:41:01.279Z,9.50
2018-05-15T19:43:28.740Z,9.17
2018-05-15T19:45:56.063Z,9.17
2018-05-15T19:48:23.387Z,9.50
2018-05-15T19:50:50.980Z,8.83
2018-05-15T19:53:18.301Z,8.50
2018-05-15T19:55:45.795Z,8.60
2018-05-15T19:58:13.248Z,10.67
2018-05-15T20:08:16.548Z,8.97
2018-05-15T20:10:43.922Z,9.10
2018-05-15T20:15:43.407Z,9.37
2018-05-15T20:18:10.765Z,9.07
2018-05-15T20:20:38.568Z,10.10
2018-05-15T20:23:07.319Z,9.20
2018-05-15T20:25:34.889Z,10.63
2018-05-15T20:28:02.222Z,10.67
2018-05-15T20:30:29.716Z,8.40
2018-05-15T20:32:57.034Z,13.23
2018-05-15T20:35:24.378Z,11.00
2018-05-15T20:37:51.744Z,11.37
2018-05-15T20:40:19.082Z,11.50
2018-05-15T20:42:46.662Z,12.40
2018-05-15T20:45:14.317Z,12.60
2018-05-15T20:47:41.775Z,11.50
2018-05-15T20:50:09.066Z,10.73
2018-05-15T20:52:36.472Z,11.17
2018-05-15T20:55:03.790Z,10.93
2018-05-15T20:57:31.151Z,12.00
2018-05-15T20:59:58.441Z,11.40
2018-05-15T21:02:25.733Z,11.43
2018-05-15T21:04:53.018Z,11.07
2018-05-15T21:07:20.303Z,10.00
2018-05-15T21:09:47.581Z,11.90
2018-05-15T21:12:15.080Z,12.77
2018-05-15T21:14:42.510Z,11.37
2018-05-15T21:17:09.838Z,12.30
2018-05-15T21:19:37.198Z,11.63
2018-05-15T21:22:04.632Z,11.63
2018-05-15T21:24:31.933Z,13.10
2018-05-15T21:26:59.205Z,12.13
2018-05-15T21:29:26.489Z,12.73
2018-05-15T21:31:53.771Z,12.97
2018-05-15T21:34:21.057Z,14.27
2018-05-15T21:36:48.372Z,14.33
2018-05-15T21:39:15.615Z,14.73
2018-05-15T21:41:42.951Z,15.93
2018-05-15T21:44:10.260Z,14.57
2018-05-15T21:46:37.625Z,14.40
2018-05-15T21:49:04.977Z,14.10
2018-05-15T21:51:32.297Z,13.70
2018-05-15T21:53:59.583Z,14.10
2018-05-15T21:56:26.861Z,15.10
2018-05-15T21:58:54.233Z,14.93
2018-05-15T22:01:21.502Z,16.93
2018-05-15T22:03:48.814Z,14.80
2018-05-15T22:06:16.089Z,14.90
2018-05-15T22:08:43.381Z,14.43
2018-05-15T22:11:13.339Z,15.00
2018-05-15T22:13:46.458Z,14.77
2018-05-15T22:16:19.430Z,15.43
2018-05-15T22:18:52.609Z,16.00
2018-05-15T22:21:25.590Z,16.00
2018-05-15T22:23:52.646Z,14.30
2018-05-15T22:26:19.922Z,14.30
2018-05-15T22:28:47.227Z,16.80
2018-05-15T22:31:14.520Z,16.57
2018-05-15T22:33:41.825Z,15.20
2018-05-15T22:36:09.153Z,16.90
2018-05-15T22:38:36.498Z,15.53
2018-05-15T22:41:03.811Z,15.40
2018-05-15T22:43:31.105Z,16.87
2018-05-15T22:45:58.393Z,16.60
2018-05-15T22:48:25.653Z,17.37
2018-05-15T22:50:52.944Z,17.57
2018-05-15T22:55:53.819Z,18.73
2018-05-15T22:58:21.109Z,16.93
2018-05-15T23:00:48.403Z,17.30
2018-05-15T23:03:15.710Z,18.30
2018-05-15T23:05:42.981Z,18.60
2018-05-15T23:08:10.341Z,20.00
2018-05-15T23:10:37.725Z,21.37
2018-05-15T23:13:05.186Z,19.07
2018-05-15T23:15:32.586Z,18.70
2018-05-15T23:17:59.853Z,19.60
2018-05-15T23:20:27.212Z,18.40
2018-05-15T23:22:54.477Z,19.13
2018-05-15T23:25:21.792Z,19.07
2018-05-15T23:27:49.064Z,19.87
2018-05-15T23:30:16.365Z,17.90
2018-05-15T23:32:43.649Z,16.60
2018-05-15T23:35:11.237Z,19.70
2018-05-15T23:37:38.641Z,18.20
2018-05-15T23:40:06.111Z,17.60
2018-05-15T23:42:33.387Z,18.20
2018-05-15T23:45:00.957Z,19.30
2018-05-15T23:47:28.294Z,19.20
2018-05-15T23:49:55.607Z,17.70
2018-05-15T23:52:22.893Z,18.60
2018-05-15T23:54:50.188Z,18.80
2018-05-15T23:57:17.472Z,17.53
2018-05-15T23:59:44.772Z,16.63
